sensor_id;sensor_type;location;lat;lon;timestamp;P1;durP1;ratioP1;P2;durP2;ratioP2
1957;SDS011;979;51.076;13.748;2023-12-20T05:28:35;20.03;;;19.33;;
1957;SDS011;979;51.076;13.748;2023-12-20T05:31:45;20.50;;;19.80;;
1957;SDS011;979;51.076;13.748;2023-12-20T05:34:46;20.43;;;19.80;;
1957;SDS011;979;51.076;13.748;2023-12-20T05:37:33;20.23;;;19.60;;
1957;SDS011;979;51.076;13.748;2023-12-20T05:43:48;19.47;;;18.87;;
1957;SDS011;979;51.076;13.748;2023-12-20T05:46:42;19.20;;;18.60;;
1957;SDS011;979;51.076;13.748;2023-12-20T05:49:28;18.20;;;17.70;;
1957;SDS011;979;51.076;13.748;2023-12-20T05:52:18;17.73;;;17.23;;
1957;SDS011;979;51.076;13.748;2023-12-20T05:55:30;18.40;;;17.90;;
1957;SDS011;979;51.076;13.748;2023-12-20T05:58:16;18.10;;;17.60;;
1957;SDS011;979;51.076;13.748;2023-12-20T06:03:47;19.00;;;18.50;;
1957;SDS011;979;51.076;13.748;2023-12-20T06:06:21;17.70;;;17.20;;
1957;SDS011;979;51.076;13.748;2023-12-20T06:09:05;19.20;;;18.60;;
1957;SDS011;979;51.076;13.748;2023-12-20T06:11:36;18.60;;;18.00;;
1957;SDS011;979;51.076;13.748;2023-12-20T06:14:12;19.10;;;18.50;;
1957;SDS011;979;51.076;13.748;2023-12-20T06:16:46;18.30;;;17.80;;
1957;SDS011;979;51.076;13.748;2023-12-20T06:19:18;18.17;;;17.67;;
1957;SDS011;979;51.076;13.748;2023-12-20T06:21:51;18.03;;;17.53;;
1957;SDS011;979;51.076;13.748;2023-12-20T06:24:29;18.40;;;17.90;;
1957;SDS011;979;51.076;13.748;2023-12-20T06:27:03;18.30;;;17.80;;
1957;SDS011;979;51.076;13.748;2023-12-20T06:29:43;17.50;;;17.00;;
1957;SDS011;979;51.076;13.748;2023-12-20T06:32:19;17.90;;;17.40;;
1957;SDS011;979;51.076;13.748;2023-12-20T06:34:57;17.70;;;17.20;;
1957;SDS011;979;51.076;13.748;2023-12-20T06:37:36;17.20;;;16.80;;
1957;SDS011;979;51.076;13.748;2023-12-20T06:40:12;16.40;;;16.00;;
1957;SDS011;979;51.076;13.748;2023-12-20T06:43:06;17.60;;;17.10;;
1957;SDS011;979;51.076;13.748;2023-12-20T06:46:10;17.30;;;16.80;;
1957;SDS011;979;51.076;13.748;2023-12-20T06:48:39;16.37;;;15.97;;
1957;SDS011;979;51.076;13.748;2023-12-20T06:51:14;18.37;;;17.87;;
1957;SDS011;979;51.076;13.748;2023-12-20T06:53:52;21.50;;;20.80;;
1957;SDS011;979;51.076;13.748;2023-12-20T06:56:26;21.50;;;20.80;;
1957;SDS011;979;51.076;13.748;2023-12-20T06:58:54;22.87;;;22.17;;
1957;SDS011;979;51.076;13.748;2023-12-20T07:01:32;24.27;;;23.37;;
1957;SDS011;979;51.076;13.748;2023-12-20T07:04:05;23.87;;;22.77;;
1957;SDS011;979;51.076;13.748;2023-12-20T07:06:41;23.30;;;22.40;;
1957;SDS011;979;51.076;13.748;2023-12-20T07:09:10;22.77;;;21.17;;
1957;SDS011;979;51.076;13.748;2023-12-20T07:11:52;20.47;;;19.73;;
1957;SDS011;979;51.076;13.748;2023-12-20T07:14:24;19.27;;;18.67;;
1957;SDS011;979;51.076;13.748;2023-12-20T07:16:58;19.00;;;18.30;;
1957;SDS011;979;51.076;13.748;2023-12-20T07:19:29;17.90;;;17.30;;
1957;SDS011;979;51.076;13.748;2023-12-20T07:22:01;18.70;;;17.90;;
1957;SDS011;979;51.076;13.748;2023-12-20T07:24:35;19.20;;;18.50;;
1957;SDS011;979;51.076;13.748;2023-12-20T07:27:10;18.93;;;18.33;;
1957;SDS011;979;51.076;13.748;2023-12-20T07:29:49;18.63;;;17.93;;
1957;SDS011;979;51.076;13.748;2023-12-20T07:32:22;18.80;;;18.20;;
1957;SDS011;979;51.076;13.748;2023-12-20T07:34:57;18.20;;;17.40;;
1957;SDS011;979;51.076;13.748;2023-12-20T07:37:32;17.30;;;16.80;;
1957;SDS011;979;51.076;13.748;2023-12-20T07:40:07;18.63;;;17.77;;
1957;SDS011;979;51.076;13.748;2023-12-20T07:42:42;18.50;;;17.50;;
1957;SDS011;979;51.076;13.748;2023-12-20T07:45:13;16.80;;;16.30;;
1957;SDS011;979;51.076;13.748;2023-12-20T07:47:43;17.93;;;17.23;;
1957;SDS011;979;51.076;13.748;2023-12-20T07:50:17;17.77;;;17.07;;
1957;SDS011;979;51.076;13.748;2023-12-20T07:52:48;18.40;;;17.60;;
1957;SDS011;979;51.076;13.748;2023-12-20T07:55:20;18.10;;;17.30;;
1957;SDS011;979;51.076;13.748;2023-12-20T07:57:51;18.70;;;17.97;;
1957;SDS011;979;51.076;13.748;2023-12-20T08:00:22;18.07;;;17.43;;
1957;SDS011;979;51.076;13.748;2023-12-20T08:03:00;18.90;;;18.10;;
1957;SDS011;979;51.076;13.748;2023-12-20T08:05:30;19.43;;;18.10;;
1957;SDS011;979;51.076;13.748;2023-12-20T08:08:10;18.73;;;17.73;;
1957;SDS011;979;51.076;13.748;2023-12-20T08:10:39;17.53;;;16.93;;
1957;SDS011;979;51.076;13.748;2023-12-20T08:13:07;19.17;;;18.27;;
1957;SDS011;979;51.076;13.748;2023-12-20T08:15:38;19.27;;;18.50;;
1957;SDS011;979;51.076;13.748;2023-12-20T08:18:16;18.87;;;18.17;;
1957;SDS011;979;51.076;13.748;2023-12-20T08:20:45;18.30;;;17.60;;
1957;SDS011;979;51.076;13.748;2023-12-20T08:23:15;17.17;;;16.67;;
1957;SDS011;979;51.076;13.748;2023-12-20T08:25:43;17.47;;;16.93;;
1957;SDS011;979;51.076;13.748;2023-12-20T08:28:12;23.73;;;18.20;;
1957;SDS011;979;51.076;13.748;2023-12-20T08:30:43;16.70;;;16.30;;
1957;SDS011;979;51.076;13.748;2023-12-20T08:33:11;17.30;;;16.60;;
1957;SDS011;979;51.076;13.748;2023-12-20T08:35:41;16.73;;;16.27;;
1957;SDS011;979;51.076;13.748;2023-12-20T08:38:10;18.30;;;17.40;;
1957;SDS011;979;51.076;13.748;2023-12-20T08:40:43;17.43;;;16.80;;
1957;SDS011;979;51.076;13.748;2023-12-20T08:43:11;19.70;;;19.00;;
1957;SDS011;979;51.076;13.748;2023-12-20T08:45:44;17.90;;;17.20;;
1957;SDS011;979;51.076;13.748;2023-12-20T08:48:13;18.70;;;17.90;;
1957;SDS011;979;51.076;13.748;2023-12-20T08:50:53;20.50;;;19.50;;
1957;SDS011;979;51.076;13.748;2023-12-20T08:53:22;19.87;;;18.93;;
1957;SDS011;979;51.076;13.748;2023-12-20T08:55:51;18.60;;;17.90;;
1957;SDS011;979;51.076;13.748;2023-12-20T08:58:27;18.50;;;17.90;;
1957;SDS011;979;51.076;13.748;2023-12-20T09:01:00;18.30;;;17.50;;
1957;SDS011;979;51.076;13.748;2023-12-20T09:03:29;18.10;;;17.30;;
1957;SDS011;979;51.076;13.748;2023-12-20T09:06:02;19.10;;;18.40;;
1957;SDS011;979;51.076;13.748;2023-12-20T09:08:32;18.30;;;17.50;;
1957;SDS011;979;51.076;13.748;2023-12-20T09:11:03;17.60;;;17.00;;
1957;SDS011;979;51.076;13.748;2023-12-20T09:13:32;17.30;;;16.80;;
1957;SDS011;979;51.076;13.748;2023-12-20T09:16:06;18.33;;;17.70;;
1957;SDS011;979;51.076;13.748;2023-12-20T09:18:38;17.70;;;17.07;;
1957;SDS011;979;51.076;13.748;2023-12-20T09:21:11;18.13;;;17.53;;
1957;SDS011;979;51.076;13.748;2023-12-20T09:23:40;17.37;;;16.87;;
1957;SDS011;979;51.076;13.748;2023-12-20T09:26:14;16.97;;;16.47;;
1957;SDS011;979;51.076;13.748;2023-12-20T09:28:43;17.00;;;16.50;;
1957;SDS011;979;51.076;13.748;2023-12-20T09:31:19;16.77;;;16.37;;
1957;SDS011;979;51.076;13.748;2023-12-20T09:33:57;17.00;;;16.60;;
1957;SDS011;979;51.076;13.748;2023-12-20T09:36:38;17.10;;;16.60;;
1957;SDS011;979;51.076;13.748;2023-12-20T09:39:13;16.63;;;16.23;;
1957;SDS011;979;51.076;13.748;2023-12-20T09:41:42;17.40;;;16.90;;
1957;SDS011;979;51.076;13.748;2023-12-20T09:44:14;17.50;;;17.00;;
1957;SDS011;979;51.076;13.748;2023-12-20T09:46:49;16.67;;;15.97;;
1957;SDS011;979;51.076;13.748;2023-12-20T09:49:20;17.90;;;17.17;;
1957;SDS011;979;51.076;13.748;2023-12-20T09:51:51;17.97;;;17.23;;
1957;SDS011;979;51.076;13.748;2023-12-20T09:54:26;17.00;;;16.50;;
1957;SDS011;979;51.076;13.748;2023-12-20T09:56:57;17.87;;;17.17;;
1957;SDS011;979;51.076;13.748;2023-12-20T09:59:26;18.70;;;17.70;;
1957;SDS011;979;51.076;13.748;2023-12-20T10:02:02;17.63;;;17.13;;
1957;SDS011;979;51.076;13.748;2023-12-20T10:04:38;16.57;;;16.17;;
1957;SDS011;979;51.076;13.748;2023-12-20T10:07:16;16.30;;;15.90;;
1957;SDS011;979;51.076;13.748;2023-12-20T10:09:49;16.17;;;15.77;;
1957;SDS011;979;51.076;13.748;2023-12-20T10:12:24;15.90;;;15.50;;
1957;SDS011;979;51.076;13.748;2023-12-20T10:14:57;15.23;;;14.87;;
1957;SDS011;979;51.076;13.748;2023-12-20T10:17:38;16.73;;;15.40;;
1957;SDS011;979;51.076;13.748;2023-12-20T10:20:14;16.13;;;15.73;;
1957;SDS011;979;51.076;13.748;2023-12-20T10:22:51;15.30;;;15.00;;
1957;SDS011;979;51.076;13.748;2023-12-20T10:25:21;16.30;;;15.90;;
1957;SDS011;979;51.076;13.748;2023-12-20T10:28:08;16.00;;;15.60;;
1957;SDS011;979;51.076;13.748;2023-12-20T10:30:41;15.87;;;15.47;;
1957;SDS011;979;51.076;13.748;2023-12-20T10:33:13;16.10;;;15.70;;
1957;SDS011;979;51.076;13.748;2023-12-20T10:35:50;14.80;;;14.40;;
1957;SDS011;979;51.076;13.748;2023-12-20T10:38:28;15.80;;;15.40;;
1957;SDS011;979;51.076;13.748;2023-12-20T10:41:07;15.37;;;15.07;;
1957;SDS011;979;51.076;13.748;2023-12-20T10:43:37;15.63;;;15.30;;
1957;SDS011;979;51.076;13.748;2023-12-20T10:46:07;15.00;;;14.60;;
1957;SDS011;979;51.076;13.748;2023-12-20T10:48:39;14.93;;;14.53;;
1957;SDS011;979;51.076;13.748;2023-12-20T10:51:10;15.60;;;15.20;;
1957;SDS011;979;51.076;13.748;2023-12-20T10:53:46;15.10;;;14.70;;
1957;SDS011;979;51.076;13.748;2023-12-20T10:56:17;14.57;;;14.27;;
1957;SDS011;979;51.076;13.748;2023-12-20T10:58:50;14.80;;;14.50;;
1957;SDS011;979;51.076;13.748;2023-12-20T11:01:33;16.20;;;15.80;;
1957;SDS011;979;51.076;13.748;2023-12-20T11:04:07;14.40;;;14.10;;
1957;SDS011;979;51.076;13.748;2023-12-20T11:06:49;16.10;;;15.70;;
1957;SDS011;979;51.076;13.748;2023-12-20T11:09:27;15.17;;;14.77;;
1957;SDS011;979;51.076;13.748;2023-12-20T11:12:02;15.10;;;14.70;;
1957;SDS011;979;51.076;13.748;2023-12-20T11:14:39;15.40;;;15.00;;
1957;SDS011;979;51.076;13.748;2023-12-20T11:17:13;14.53;;;14.23;;
1957;SDS011;979;51.076;13.748;2023-12-20T11:22:32;15.60;;;15.30;;
1957;SDS011;979;51.076;13.748;2023-12-20T11:28:20;15.60;;;15.10;;
1957;SDS011;979;51.076;13.748;2023-12-20T11:30:50;15.40;;;15.00;;
1957;SDS011;979;51.076;13.748;2023-12-20T11:33:24;15.70;;;15.30;;
1957;SDS011;979;51.076;13.748;2023-12-20T11:35:56;16.00;;;15.60;;
1957;SDS011;979;51.076;13.748;2023-12-20T17:53:48;19.57;;;18.97;;
1957;SDS011;979;51.076;13.748;2023-12-20T17:56:17;19.10;;;18.60;;
1957;SDS011;979;51.076;13.748;2023-12-20T17:58:46;18.60;;;18.10;;
1957;SDS011;979;51.076;13.748;2023-12-20T18:01:15;18.80;;;18.20;;
1957;SDS011;979;51.076;13.748;2023-12-20T18:32:07;20.17;;;19.47;;
1957;SDS011;979;51.076;13.748;2023-12-20T18:34:36;20.53;;;19.93;;
1957;SDS011;979;51.076;13.748;2023-12-20T18:37:05;20.40;;;19.80;;
1957;SDS011;979;51.076;13.748;2023-12-20T18:39:37;20.97;;;20.27;;
1957;SDS011;979;51.076;13.748;2023-12-20T18:42:06;20.40;;;19.70;;
1957;SDS011;979;51.076;13.748;2023-12-20T18:44:38;19.23;;;18.63;;
1957;SDS011;979;51.076;13.748;2023-12-20T18:47:08;20.07;;;19.37;;
1957;SDS011;979;51.076;13.748;2023-12-20T18:49:37;20.40;;;19.70;;
1957;SDS011;979;51.076;13.748;2023-12-20T18:52:06;21.40;;;20.70;;
1957;SDS011;979;51.076;13.748;2023-12-20T18:54:36;22.90;;;22.10;;
1957;SDS011;979;51.076;13.748;2023-12-20T18:57:07;23.13;;;22.33;;
1957;SDS011;979;51.076;13.748;2023-12-20T18:59:38;22.47;;;21.57;;
1957;SDS011;979;51.076;13.748;2023-12-20T19:02:21;21.20;;;20.50;;
1957;SDS011;979;51.076;13.748;2023-12-20T19:04:52;20.97;;;20.27;;
1957;SDS011;979;51.076;13.748;2023-12-20T19:07:22;19.50;;;18.90;;
1957;SDS011;979;51.076;13.748;2023-12-20T19:10:06;21.30;;;20.60;;
1957;SDS011;979;51.076;13.748;2023-12-20T19:12:38;21.13;;;20.30;;
1957;SDS011;979;51.076;13.748;2023-12-20T19:15:07;20.70;;;20.00;;
1957;SDS011;979;51.076;13.748;2023-12-20T19:17:39;21.13;;;20.47;;
1957;SDS011;979;51.076;13.748;2023-12-20T19:20:10;22.27;;;21.57;;
1957;SDS011;979;51.076;13.748;2023-12-20T19:22:39;21.90;;;21.20;;
1957;SDS011;979;51.076;13.748;2023-12-20T19:25:10;22.90;;;22.10;;
1957;SDS011;979;51.076;13.748;2023-12-20T19:27:40;22.77;;;22.07;;
1957;SDS011;979;51.076;13.748;2023-12-20T19:30:13;23.10;;;22.30;;
1957;SDS011;979;51.076;13.748;2023-12-20T19:32:46;23.40;;;22.60;;
1957;SDS011;979;51.076;13.748;2023-12-20T19:35:18;23.50;;;22.70;;
1957;SDS011;979;51.076;13.748;2023-12-20T19:37:46;22.87;;;22.07;;
1957;SDS011;979;51.076;13.748;2023-12-20T19:40:16;23.00;;;22.20;;
1957;SDS011;979;51.076;13.748;2023-12-20T19:42:45;23.50;;;22.60;;
1957;SDS011;979;51.076;13.748;2023-12-20T19:45:14;23.50;;;22.60;;
1957;SDS011;979;51.076;13.748;2023-12-20T19:47:48;22.90;;;22.10;;
1957;SDS011;979;51.076;13.748;2023-12-20T19:50:20;22.80;;;22.00;;
1957;SDS011;979;51.076;13.748;2023-12-20T19:52:51;23.50;;;22.70;;
1957;SDS011;979;51.076;13.748;2023-12-20T19:55:23;24.00;;;23.10;;
1957;SDS011;979;51.076;13.748;2023-12-20T22:01:29;15.70;;;15.30;;
1957;SDS011;979;51.076;13.748;2023-12-20T22:43:23;17.00;;;16.50;;
1957;SDS011;979;51.076;13.748;2023-12-20T22:45:52;18.33;;;17.10;;
1957;SDS011;979;51.076;13.748;2023-12-20T22:48:20;17.40;;;16.80;;
1957;SDS011;979;51.076;13.748;2023-12-20T22:50:50;17.13;;;16.53;;
1957;SDS011;979;51.076;13.748;2023-12-20T22:53:18;17.03;;;16.50;;
1957;SDS011;979;51.076;13.748;2023-12-20T22:55:50;17.53;;;16.93;;
1957;SDS011;979;51.076;13.748;2023-12-20T22:58:18;16.93;;;16.43;;
1957;SDS011;979;51.076;13.748;2023-12-20T23:00:48;17.00;;;16.43;;
1957;SDS011;979;51.076;13.748;2023-12-20T23:03:17;17.50;;;16.43;;
1957;SDS011;979;51.076;13.748;2023-12-20T23:05:47;16.03;;;15.57;;
1957;SDS011;979;51.076;13.748;2023-12-20T23:08:15;15.70;;;15.30;;
1957;SDS011;979;51.076;13.748;2023-12-20T23:10:44;17.37;;;16.70;;
1957;SDS011;979;51.076;13.748;2023-12-20T23:13:12;16.10;;;15.30;;
1957;SDS011;979;51.076;13.748;2023-12-20T23:15:42;16.33;;;15.83;;
1957;SDS011;979;51.076;13.748;2023-12-20T23:18:13;16.60;;;16.10;;
1957;SDS011;979;51.076;13.748;2023-12-20T23:20:42;16.37;;;15.87;;
1957;SDS011;979;51.076;13.748;2023-12-20T23:23:10;17.00;;;16.50;;
1957;SDS011;979;51.076;13.748;2023-12-20T23:25:39;16.83;;;16.33;;
1957;SDS011;979;51.076;13.748;2023-12-20T23:28:08;17.23;;;16.63;;
1957;SDS011;979;51.076;13.748;2023-12-20T23:30:36;16.73;;;16.23;;
1957;SDS011;979;51.076;13.748;2023-12-20T23:33:05;16.67;;;16.17;;
1957;SDS011;979;51.076;13.748;2023-12-20T23:35:35;17.47;;;16.77;;
1957;SDS011;979;51.076;13.748;2023-12-20T23:38:03;17.00;;;16.50;;
1957;SDS011;979;51.076;13.748;2023-12-20T23:40:33;17.77;;;17.17;;
1957;SDS011;979;51.076;13.748;2023-12-20T23:43:02;17.47;;;16.90;;
1957;SDS011;979;51.076;13.748;2023-12-20T23:45:30;16.63;;;16.13;;
1957;SDS011;979;51.076;13.748;2023-12-20T23:48:00;16.63;;;16.03;;
1957;SDS011;979;51.076;13.748;2023-12-20T23:50:28;17.47;;;16.80;;
1957;SDS011;979;51.076;13.748;2023-12-20T23:52:59;17.30;;;16.70;;
1957;SDS011;979;51.076;13.748;2023-12-20T23:55:27;16.73;;;16.13;;
1957;SDS011;979;51.076;13.748;2023-12-20T23:57:55;18.10;;;17.30;;
